Flugplatz Brilon/Hochsauerland (EDKO)

Hier findest Du alle Informationen zum Flugplatz Brilon/Hochsauerland (EDKO).

Informationen für Piloten zum Flugplatz Brilon/Hochsauerland

Hier findest Du alle relevanten Informationen, die Du als Pilot benötigst, um Brilon/Hochsauerland anzufliegen.

Flugplatz: Brilon/Hochsauerland ICAO-Code: EDKO
Frequenz Turm: 129,375 Mhz GAFOR Gebiet: 36
Frequenz Ground: 129,375 Mhz Mogas: nein
Platzrunde: S 2500 ft Landegebühr: -
Platzhöhe: - Sunrise: 07:17 Uhr UTC
Pisten: 07/25 - 600 m x 15 m, ASPH Sunset: 15:19 Uhr UTC

Mitglieder, die in Brilon/Hochsauerland fliegen

Flugwetter am Flugplatz Brilon/Hochsauerland

Die METAR Information stammen aus EDLP (23.56 km entfernt).

METAR Code:
2022/11/14 06:20
EDLP 140620Z 09007KT CAVOK 02/00 Q1014

Temperatur: -5,3 °C Niederschlag: - Wind: 1,1 kt (max.: 2,0 kt in Böen)
Temperatur (min.): -5,5 °C Luftdruck: 1010 hPa Windrichtung: 177 °
Temperatur (max.): -3,9 °C Luftfeuchtigkeit: 98 % Bewölkung: 4/8

Flugschulen am Flugplatz Brilon/Hochsauerland

Am Flugplatz Brilon/Hochsauerland gibt es eine Flugschule.

Benachbarte Flugplätze und Flugschulen

Es gibt 15 weitere Flugplätze in einem Umkreis von 50 km um den Flugplatz Brilon/Hochsauerland.

Jetzt anmelden

Passwort vergessen

Umfrage Archiv

Sendet Ihr ADS-B und/oder FLARM?

Ja
84.6 %
Nein
15.4 %
Stimmen: 254 | Diskussion
Anzeige: Roland Aircraft
Statistik Alle Mitglieder

Aktuell sind 47 Besucher online.

Anzeige: ULPower Aero Engines Anzeige: EasyVFR